Time;durP1;ratioP1;P1;durP2;ratioP2;P2;SDS_P1;SDS_P2;PMS_P1;PMS_P2;Temp;Humidity;BMP_temperature;BMP_pressure;BME280_temperature;BME280_humidity;BME280_pressure;Samples;Min_cycle;Max_cycle;Signal;HPM_P1;HPM_P2
2021/12/26 00:01:21;;;;;;;14.45;12.93;;;4.60;99.90;;;;;;2023317;71;21504;-79
2021/12/26 00:03:47;;;;;;;15.63;12.98;;;4.70;99.90;;;;;;2021189;70;21464;-80
2021/12/26 00:06:14;;;;;;;15.28;13.35;;;4.70;99.90;;;;;;2020343;69;21442;-76
2021/12/26 00:08:40;;;;;;;15.75;12.90;;;4.70;99.90;;;;;;2024404;70;21100;-76
2021/12/26 00:11:07;;;;;;;21.07;14.93;;;4.70;99.90;;;;;;2023787;70;21053;-76
2021/12/26 00:13:33;;;;;;;21.37;14.73;;;4.70;99.90;;;;;;2018514;70;21490;-76
2021/12/26 00:15:59;;;;;;;16.80;13.43;;;4.70;99.90;;;;;;2021320;70;21407;-74
2021/12/26 00:18:25;;;;;;;17.07;13.43;;;4.70;99.90;;;;;;2019862;70;21564;-74
2021/12/26 00:20:51;;;;;;;16.15;12.75;;;4.70;99.90;;;;;;2022393;69;21535;-75
2021/12/26 00:23:17;;;;;;;16.25;13.18;;;4.80;99.90;;;;;;2020333;70;21548;-74
2021/12/26 00:25:44;;;;;;;21.55;14.25;;;4.70;99.90;;;;;;2018553;70;21044;-74
2021/12/26 00:28:10;;;;;;;18.17;13.95;;;4.70;99.90;;;;;;2016073;69;21062;-74
2021/12/26 00:30:36;;;;;;;19.73;14.73;;;4.70;99.90;;;;;;2022647;69;21044;-75
2021/12/26 00:33:02;;;;;;;19.40;14.40;;;4.60;99.90;;;;;;2022109;70;21098;-75
2021/12/26 00:35:28;;;;;;;24.15;15.35;;;4.70;99.90;;;;;;2020903;70;21134;-75
2021/12/26 00:37:55;;;;;;;21.25;16.12;;;4.70;99.90;;;;;;2021342;70;21056;-75
2021/12/26 00:40:21;;;;;;;19.10;14.98;;;4.70;99.90;;;;;;2022119;70;21115;-76
2021/12/26 00:42:47;;;;;;;24.07;16.35;;;4.70;99.90;;;;;;2021704;69;21517;-75
2021/12/26 00:45:13;;;;;;;22.58;15.93;;;4.70;99.90;;;;;;2021921;70;21517;-76
2021/12/26 00:47:39;;;;;;;20.40;15.83;;;4.70;99.90;;;;;;2022096;70;21504;-76
2021/12/26 00:50:06;;;;;;;21.55;16.85;;;4.70;99.90;;;;;;2023152;70;21133;-75
2021/12/26 00:52:32;;;;;;;22.60;16.57;;;4.80;99.90;;;;;;2023502;70;21040;-76
2021/12/26 00:54:58;;;;;;;23.07;15.85;;;4.80;99.90;;;;;;2020995;70;21051;-74
2021/12/26 00:57:24;;;;;;;16.85;14.43;;;4.80;99.90;;;;;;2020268;70;21040;-75
2021/12/26 00:59:50;;;;;;;17.02;14.95;;;4.80;99.90;;;;;;2022552;70;21116;-75
2021/12/26 01:02:16;;;;;;;18.82;15.58;;;4.80;99.90;;;;;;2020693;70;21040;-75
2021/12/26 01:04:42;;;;;;;26.75;16.67;;;4.70;99.90;;;;;;2023174;70;21134;-75
2021/12/26 01:07:17;;;;;;;25.02;15.95;;;4.70;99.90;;;;;;2023427;70;21109;-75
2021/12/26 01:09:36;;;;;;;21.30;16.55;;;4.70;99.90;;;;;;2019274;70;21085;-76
2021/12/26 01:12:11;;;;;;;20.62;15.25;;;4.80;99.90;;;;;;2020960;70;21040;-73
2021/12/26 01:14:31;;;;;;;39.20;16.50;;;4.80;99.90;;;;;;2018831;70;21125;-74
2021/12/26 01:17:14;;;;;;;20.50;16.15;;;4.80;99.90;;;;;;2021587;70;21017;-75
2021/12/26 01:19:49;;;;;;;21.17;16.17;;;4.80;99.90;;;;;;2021447;69;21480;-76
2021/12/26 01:22:13;;;;;;;22.55;15.50;;;4.80;99.90;;;;;;2019876;71;21113;-74
2021/12/26 01:24:39;;;;;;;19.37;16.12;;;4.80;99.90;;;;;;2018600;69;21036;-75
2021/12/26 01:27:05;;;;;;;22.52;16.02;;;4.80;99.90;;;;;;2021976;69;21043;-75
2021/12/26 01:29:31;;;;;;;19.20;15.32;;;4.80;99.90;;;;;;2021279;70;21103;-75
2021/12/26 01:31:57;;;;;;;31.62;16.02;;;4.80;99.90;;;;;;2022337;70;21020;-77
2021/12/26 01:34:23;;;;;;;19.82;15.05;;;4.90;99.90;;;;;;2020973;69;21157;-78
2021/12/26 01:36:49;;;;;;;19.85;15.15;;;4.90;99.90;;;;;;2019543;70;21008;-78
2021/12/26 01:39:15;;;;;;;18.25;13.90;;;4.90;99.90;;;;;;2020652;70;21125;-78
2021/12/26 01:41:43;;;;;;;20.82;14.83;;;4.90;99.90;;;;;;2019878;70;21039;-76
2021/12/26 01:44:11;;;;;;;19.50;13.75;;;4.90;99.90;;;;;;2019400;70;21105;-77
2021/12/26 01:46:37;;;;;;;17.55;14.55;;;4.80;99.90;;;;;;2020378;70;21522;-77
2021/12/26 01:49:03;;;;;;;20.70;14.33;;;4.80;99.90;;;;;;2021783;71;21467;-77
2021/12/26 01:51:29;;;;;;;15.23;12.50;;;4.80;99.90;;;;;;2018387;70;21484;-77
2021/12/26 01:53:57;;;;;;;19.05;13.53;;;4.80;99.90;;;;;;2020727;70;21038;-77
2021/12/26 01:56:23;;;;;;;17.25;14.03;;;4.80;99.90;;;;;;2021298;71;21209;-78
2021/12/26 01:58:50;;;;;;;18.02;13.13;;;4.80;99.90;;;;;;2018539;70;21517;-78
2021/12/26 02:01:16;;;;;;;16.45;12.60;;;4.70;99.90;;;;;;2018520;71;21489;-76
2021/12/26 02:03:42;;;;;;;17.65;13.32;;;4.80;99.90;;;;;;2019288;70;21592;-77
2021/12/26 02:06:08;;;;;;;16.23;12.03;;;4.80;99.90;;;;;;2024143;70;21441;-77
2021/12/26 02:08:34;;;;;;;15.95;12.40;;;4.80;99.90;;;;;;2020252;71;21436;-77
2021/12/26 02:11:02;;;;;;;15.53;12.00;;;4.80;99.90;;;;;;2019928;69;21516;-78
2021/12/26 02:13:28;;;;;;;13.62;10.82;;;4.70;99.90;;;;;;2021107;70;21070;-78
2021/12/26 02:15:54;;;;;;;13.15;11.75;;;4.80;99.90;;;;;;2024116;70;21020;-77
2021/12/26 02:18:20;;;;;;;15.45;11.88;;;4.80;99.90;;;;;;2018646;70;21141;-78
2021/12/26 02:21:06;;;;;;;16.05;11.73;;;4.70;99.90;;;;;;2020506;70;21706;-77
2021/12/26 02:23:23;;;;;;;;;;;4.70;99.90;;;;;;2020911;70;21134;-77
2021/12/26 02:28:12;;;;;;;18.33;11.53;;;4.70;99.90;;;;;;2021795;70;21448;-76
2021/12/26 02:30:38;;;;;;;13.48;11.68;;;4.60;99.90;;;;;;2020287;70;21404;-77
2021/12/26 02:33:08;;;;;;;12.55;11.08;;;4.70;99.90;;;;;;2019656;70;21450;-78
2021/12/26 02:35:32;;;;;;;14.65;12.20;;;4.70;99.90;;;;;;2020446;70;21059;-77
2021/12/26 02:37:58;;;;;;;14.07;11.80;;;4.70;99.90;;;;;;2021344;70;21051;-77
2021/12/26 02:40:25;;;;;;;14.18;11.35;;;4.60;99.90;;;;;;2019222;71;21013;-76
2021/12/26 02:42:51;;;;;;;20.77;12.82;;;4.60;99.90;;;;;;2018829;70;21047;-76
2021/12/26 02:45:17;;;;;;;13.70;11.75;;;4.70;99.90;;;;;;2023796;70;21051;-76
2021/12/26 02:47:43;;;;;;;19.52;12.30;;;4.60;99.90;;;;;;2019017;70;21560;-76
2021/12/26 02:50:09;;;;;;;16.85;12.10;;;4.70;99.90;;;;;;2020615;70;21388;-76
2021/12/26 02:52:35;;;;;;;15.32;11.85;;;4.70;99.90;;;;;;2020730;70;21460;-76
2021/12/26 02:55:01;;;;;;;15.20;11.83;;;4.70;99.90;;;;;;2022285;69;21519;-76
2021/12/26 02:57:27;;;;;;;14.63;11.68;;;4.70;99.90;;;;;;2023527;69;21436;-76
2021/12/26 02:59:54;;;;;;;12.68;10.78;;;4.60;99.90;;;;;;2021502;69;21043;-77
2021/12/26 03:02:20;;;;;;;16.25;13.05;;;4.70;99.90;;;;;;2021659;70;21040;-76
2021/12/26 03:04:46;;;;;;;14.15;12.35;;;4.60;99.90;;;;;;2018606;71;21190;-77
2021/12/26 03:07:12;;;;;;;14.13;11.97;;;4.60;99.90;;;;;;2018334;70;21080;-77
2021/12/26 03:09:46;;;;;;;13.78;11.93;;;4.60;99.90;;;;;;2019944;70;21044;-76
2021/12/26 03:12:06;;;;;;;17.67;13.15;;;4.70;99.90;;;;;;2018181;69;21510;-78
2021/12/26 03:14:32;;;;;;;15.90;11.63;;;4.70;99.90;;;;;;2023403;70;21565;-76
2021/12/26 03:16:58;;;;;;;19.25;13.08;;;4.70;99.90;;;;;;2023551;69;21036;-77
2021/12/26 03:19:24;;;;;;;12.53;10.90;;;4.70;99.90;;;;;;2023568;70;21037;-77
2021/12/26 03:21:51;;;;;;;16.52;12.15;;;4.60;99.90;;;;;;2022268;70;21039;-77
2021/12/26 03:24:17;;;;;;;14.28;12.25;;;4.60;99.90;;;;;;2022041;69;21117;-77
2021/12/26 03:26:43;;;;;;;14.65;11.63;;;4.50;99.90;;;;;;2020535;70;21040;-76
2021/12/26 03:29:09;;;;;;;16.32;11.53;;;4.60;99.90;;;;;;2018538;70;21041;-76
2021/12/26 03:31:35;;;;;;;15.23;10.90;;;4.60;99.90;;;;;;2018428;70;21028;-76
2021/12/26 03:34:01;;;;;;;12.68;10.98;;;4.60;99.90;;;;;;2023728;70;21082;-76
2021/12/26 03:36:27;;;;;;;14.78;11.70;;;4.50;99.90;;;;;;2023317;70;21124;-76
2021/12/26 03:38:53;;;;;;;15.23;12.80;;;4.60;99.90;;;;;;2019781;70;21412;-77
2021/12/26 03:41:20;;;;;;;14.05;11.43;;;4.50;99.90;;;;;;2022708;70;21459;-77
2021/12/26 03:43:46;;;;;;;13.65;11.65;;;4.60;99.90;;;;;;2021015;70;21090;-78
2021/12/26 03:46:14;;;;;;;18.73;12.43;;;4.60;99.90;;;;;;2019193;70;21129;-76
2021/12/26 03:48:40;;;;;;;16.82;12.30;;;4.60;99.90;;;;;;2020392;70;21042;-78
2021/12/26 03:51:06;;;;;;;17.90;12.30;;;4.60;99.90;;;;;;2020362;70;21118;-77
2021/12/26 03:53:32;;;;;;;16.15;11.93;;;4.60;99.90;;;;;;2018564;70;21561;-77
2021/12/26 03:56:00;;;;;;;16.27;12.90;;;4.50;99.90;;;;;;2021897;70;21592;-77
2021/12/26 03:58:26;;;;;;;17.10;13.18;;;4.50;99.90;;;;;;2018389;70;21173;-76
2021/12/26 04:00:54;;;;;;;14.78;12.28;;;4.50;99.90;;;;;;2018623;70;21079;-76
2021/12/26 04:03:20;;;;;;;16.85;12.45;;;4.60;99.90;;;;;;2018503;70;21082;-77
2021/12/26 04:05:46;;;;;;;14.55;12.43;;;4.60;99.90;;;;;;2020031;69;21108;-75
2021/12/26 04:08:12;;;;;;;14.38;12.75;;;4.60;99.90;;;;;;2020205;69;21068;-75
2021/12/26 04:10:38;;;;;;;16.55;11.63;;;4.60;99.90;;;;;;2018447;70;21036;-77
2021/12/26 04:13:05;;;;;;;14.85;12.03;;;4.60;99.90;;;;;;2021552;70;21113;-78
2021/12/26 04:15:31;;;;;;;18.95;13.18;;;4.50;99.90;;;;;;2021424;70;21200;-77
2021/12/26 04:17:58;;;;;;;17.77;12.47;;;4.50;99.90;;;;;;2020110;70;21032;-78
2021/12/26 04:20:24;;;;;;;17.82;13.18;;;4.50;99.90;;;;;;2021342;69;21172;-78
2021/12/26 04:22:50;;;;;;;19.32;12.65;;;4.60;99.90;;;;;;2021314;70;21034;-77
2021/12/26 04:25:16;;;;;;;16.02;12.55;;;4.60;99.90;;;;;;2022124;70;21056;-76
2021/12/26 04:27:43;;;;;;;15.83;12.57;;;4.50;99.90;;;;;;2023426;70;21138;-77
2021/12/26 04:30:09;;;;;;;19.77;13.93;;;4.50;99.90;;;;;;2022870;70;21421;-77
2021/12/26 04:32:35;;;;;;;16.48;12.43;;;4.50;99.90;;;;;;2019963;70;21454;-77
2021/12/26 04:35:01;;;;;;;19.20;13.13;;;4.60;99.90;;;;;;2022077;70;21444;-78
2021/12/26 04:37:27;;;;;;;16.73;12.73;;;4.50;99.90;;;;;;2020208;69;21534;-77
2021/12/26 04:39:53;;;;;;;20.65;13.10;;;4.60;99.90;;;;;;2019053;71;21405;-76
2021/12/26 04:42:19;;;;;;;15.13;12.43;;;4.50;99.90;;;;;;2018766;70;21035;-78
2021/12/26 04:44:47;;;;;;;15.72;13.45;;;4.50;99.90;;;;;;2019947;70;21035;-77
2021/12/26 04:47:13;;;;;;;17.95;12.93;;;4.50;99.90;;;;;;2019728;70;21133;-77
2021/12/26 04:49:39;;;;;;;18.07;13.30;;;4.60;99.90;;;;;;2021452;70;21047;-77
2021/12/26 04:52:05;;;;;;;16.02;12.95;;;4.60;99.90;;;;;;2022672;70;21408;-77
2021/12/26 04:54:31;;;;;;;20.70;13.38;;;4.60;99.90;;;;;;2023701;70;21563;-77
2021/12/26 04:56:57;;;;;;;16.93;13.00;;;4.60;99.90;;;;;;2021118;70;21556;-77
2021/12/26 04:59:24;;;;;;;19.48;14.35;;;4.60;99.90;;;;;;2020057;70;21464;-76
2021/12/26 05:01:50;;;;;;;16.80;13.78;;;4.50;99.90;;;;;;2018715;71;21049;-77
2021/12/26 05:04:16;;;;;;;23.95;15.08;;;4.60;99.90;;;;;;2020418;70;21035;-77
2021/12/26 05:06:42;;;;;;;17.50;13.53;;;4.50;99.90;;;;;;2023721;70;21105;-77
2021/12/26 05:09:08;;;;;;;17.92;13.60;;;4.50;99.90;;;;;;2021426;70;21208;-78
2021/12/26 05:11:36;;;;;;;17.87;13.90;;;4.60;99.90;;;;;;2019243;70;21040;-78
2021/12/26 05:14:02;;;;;;;17.75;14.05;;;4.50;99.90;;;;;;2020824;70;21567;-75
2021/12/26 05:16:28;;;;;;;23.38;15.45;;;4.50;99.90;;;;;;2021174;70;21540;-77
2021/12/26 05:18:54;;;;;;;21.52;15.85;;;4.50;99.90;;;;;;2020308;70;21525;-77
2021/12/26 05:21:20;;;;;;;19.37;15.65;;;4.40;99.90;;;;;;2021885;70;21105;-78
2021/12/26 05:23:46;;;;;;;19.23;14.63;;;4.40;99.90;;;;;;2021156;70;21009;-78
2021/12/26 05:26:13;;;;;;;20.08;14.68;;;4.50;99.90;;;;;;2023654;70;21206;-77
2021/12/26 05:28:39;;;;;;;21.42;15.43;;;4.50;99.90;;;;;;2023882;69;21113;-77
2021/12/26 05:31:05;;;;;;;24.32;16.57;;;4.50;99.90;;;;;;2021041;70;21108;-77
2021/12/26 05:33:31;;;;;;;19.52;15.48;;;4.60;99.90;;;;;;2023109;69;21036;-77
2021/12/26 05:35:59;;;;;;;18.62;14.10;;;4.60;99.90;;;;;;2023760;70;21024;-77
2021/12/26 05:38:27;;;;;;;21.80;15.68;;;4.60;99.90;;;;;;2021191;70;21050;-77
2021/12/26 05:40:53;;;;;;;26.52;15.32;;;4.60;99.90;;;;;;2023943;70;21467;-78
2021/12/26 05:43:19;;;;;;;19.95;15.72;;;4.60;99.90;;;;;;2021462;70;21499;-77
2021/12/26 05:45:45;;;;;;;18.57;14.53;;;4.50;99.90;;;;;;2022089;70;21525;-77
2021/12/26 05:48:11;;;;;;;18.95;14.50;;;4.60;99.90;;;;;;2023133;69;21492;-77
2021/12/26 05:50:37;;;;;;;19.52;15.88;;;4.50;99.90;;;;;;2023669;70;21048;-77
2021/12/26 05:53:03;;;;;;;23.22;16.17;;;4.50;99.90;;;;;;2023184;71;21109;-76
2021/12/26 05:55:31;;;;;;;25.37;16.12;;;4.50;99.90;;;;;;2018737;70;21048;-77
2021/12/26 05:57:57;;;;;;;21.93;16.30;;;4.60;99.90;;;;;;2018543;71;21129;-77
2021/12/26 06:00:23;;;;;;;24.60;16.30;;;4.50;99.90;;;;;;2018472;70;21024;-78
2021/12/26 06:02:50;;;;;;;24.77;16.55;;;4.60;99.90;;;;;;2022681;70;21522;-77
2021/12/26 06:08:01;;;;;;;22.52;16.15;;;4.60;99.90;;;;;;2018367;71;21142;-77
2021/12/26 06:10:27;;;;;;;21.45;16.27;;;4.50;99.90;;;;;;2020967;70;21039;-77
2021/12/26 06:12:53;;;;;;;22.30;16.97;;;4.50;99.90;;;;;;2022167;70;21040;-77
2021/12/26 06:15:19;;;;;;;20.20;15.78;;;4.50;99.90;;;;;;2020263;70;21079;-76
2021/12/26 06:17:45;;;;;;;22.80;16.60;;;4.50;99.90;;;;;;2003118;71;21092;-77
2021/12/26 06:20:14;;;;;;;22.48;16.05;;;4.50;99.90;;;;;;2022277;70;21125;-77
2021/12/26 06:22:39;;;;;;;24.23;15.72;;;4.60;99.90;;;;;;2023389;70;21199;-75
2021/12/26 06:25:05;;;;;;;23.80;17.45;;;4.60;99.90;;;;;;2023254;70;21133;-76
2021/12/26 06:27:34;;;;;;;24.52;17.42;;;4.50;99.90;;;;;;2021042;70;21036;-76
2021/12/26 06:29:59;;;;;;;20.75;16.12;;;4.60;99.90;;;;;;2020712;70;21481;-75
2021/12/26 06:32:25;;;;;;;24.60;17.37;;;4.70;99.90;;;;;;2021848;69;21483;-76
2021/12/26 06:34:52;;;;;;;24.67;17.02;;;4.50;99.90;;;;;;2022549;70;21472;-76
2021/12/26 06:37:18;;;;;;;22.48;16.12;;;4.60;99.90;;;;;;2020835;70;21448;-76
2021/12/26 06:39:44;;;;;;;21.40;15.67;;;4.60;99.90;;;;;;2020363;70;21125;-76
2021/12/26 06:42:10;;;;;;;22.32;16.73;;;4.50;99.90;;;;;;2022737;70;21110;-76
2021/12/26 06:44:36;;;;;;;22.98;15.95;;;4.50;99.90;;;;;;2023938;70;21007;-76
2021/12/26 06:47:02;;;;;;;24.25;16.30;;;4.50;99.90;;;;;;2017961;70;21101;-76
2021/12/26 06:49:28;;;;;;;20.60;15.38;;;4.50;99.90;;;;;;2022554;69;21126;-76
2021/12/26 06:51:56;;;;;;;21.25;16.02;;;4.50;99.90;;;;;;2021840;70;21036;-76
2021/12/26 06:54:23;;;;;;;20.75;15.78;;;4.60;99.90;;;;;;2019906;69;21142;-76
2021/12/26 06:56:49;;;;;;;21.15;15.95;;;4.60;99.90;;;;;;2023344;70;21210;-77
2021/12/26 06:59:15;;;;;;;19.42;15.48;;;4.60;99.90;;;;;;2022818;70;21013;-75
2021/12/26 07:01:42;;;;;;;20.60;16.15;;;4.50;99.90;;;;;;2019602;71;21071;-75
2021/12/26 07:04:08;;;;;;;22.20;15.83;;;4.50;99.90;;;;;;2021119;70;21048;-75
2021/12/26 07:06:34;;;;;;;23.73;16.05;;;4.50;99.90;;;;;;2020280;70;21048;-76
2021/12/26 07:09:00;;;;;;;23.30;16.37;;;4.60;99.90;;;;;;2019894;70;21025;-76
2021/12/26 07:11:26;;;;;;;26.60;15.53;;;4.60;99.90;;;;;;2021281;70;21042;-76
2021/12/26 07:13:52;;;;;;;23.50;15.85;;;4.70;99.90;;;;;;2021713;70;21149;-76
2021/12/26 07:16:18;;;;;;;20.77;15.55;;;4.80;99.90;;;;;;2024209;69;21051;-75
2021/12/26 07:18:44;;;;;;;19.75;15.43;;;4.70;99.90;;;;;;2020448;70;21017;-76
2021/12/26 07:21:11;;;;;;;26.40;16.10;;;4.70;99.90;;;;;;2022856;70;21125;-76
2021/12/26 07:23:37;;;;;;;21.50;15.98;;;4.70;99.90;;;;;;2018693;71;21039;-75
2021/12/26 07:26:03;;;;;;;22.00;16.30;;;4.70;99.90;;;;;;2018410;70;21121;-79
2021/12/26 07:28:29;;;;;;;23.92;16.48;;;4.60;99.90;;;;;;2023249;70;21095;-78
2021/12/26 07:30:55;;;;;;;23.45;16.02;;;4.60;99.90;;;;;;2023271;69;21027;-78
2021/12/26 07:33:21;;;;;;;24.30;15.25;;;4.70;99.90;;;;;;2001066;70;21047;-79
2021/12/26 07:35:47;;;;;;;21.93;15.72;;;4.70;99.90;;;;;;2025251;69;21054;-78
2021/12/26 07:38:13;;;;;;;18.57;14.45;;;4.80;99.90;;;;;;2022866;70;21405;-78
2021/12/26 07:40:39;;;;;;;21.17;15.38;;;4.80;99.90;;;;;;2023301;70;21425;-78
2021/12/26 07:43:06;;;;;;;17.62;14.98;;;4.80;99.90;;;;;;2021179;70;21548;-78
2021/12/26 07:45:32;;;;;;;22.73;16.30;;;4.80;99.90;;;;;;2018803;70;21507;-72
2021/12/26 07:47:58;;;;;;;28.07;14.30;;;4.80;99.90;;;;;;2021459;70;21495;-73
2021/12/26 07:50:26;;;;;;;22.20;15.68;;;4.80;99.90;;;;;;2021874;70;21042;-73
2021/12/26 07:52:53;;;;;;;24.82;15.90;;;4.80;99.90;;;;;;2020328;70;21259;-73
2021/12/26 07:55:19;;;;;;;20.88;15.72;;;4.90;99.90;;;;;;2015478;71;21044;-74
2021/12/26 07:57:48;;;;;;;22.62;16.05;;;5.00;99.90;;;;;;2021106;69;21031;-74
2021/12/26 08:00:14;;;;;;;18.65;14.60;;;5.00;99.90;;;;;;2021984;70;21463;-73
2021/12/26 08:02:40;;;;;;;22.77;15.53;;;5.00;99.90;;;;;;2018411;71;21420;-74
2021/12/26 08:05:07;;;;;;;19.85;15.00;;;5.00;99.90;;;;;;2020497;69;21472;-79
2021/12/26 08:07:33;;;;;;;22.32;16.42;;;5.00;99.90;;;;;;2021583;70;21444;-73
2021/12/26 08:09:59;;;;;;;26.20;17.55;;;5.00;99.90;;;;;;2024033;70;21467;-72
2021/12/26 08:12:25;;;;;;;24.45;17.07;;;5.10;99.90;;;;;;2019947;71;21133;-73
2021/12/26 08:14:51;;;;;;;24.07;16.55;;;5.00;99.90;;;;;;2022720;69;21040;-72
2021/12/26 08:17:17;;;;;;;24.98;16.02;;;5.10;99.90;;;;;;2018552;71;21003;-72
2021/12/26 08:19:43;;;;;;;24.32;16.57;;;5.20;99.90;;;;;;2018367;70;21032;-73
2021/12/26 08:22:09;;;;;;;21.95;15.15;;;5.20;99.90;;;;;;2020896;70;21052;-72
2021/12/26 08:24:36;;;;;;;19.90;15.98;;;5.20;99.90;;;;;;2019758;70;21044;-77
2021/12/26 08:27:02;;;;;;;22.48;16.82;;;5.20;99.90;;;;;;2021461;70;21047;-80
2021/12/26 08:29:28;;;;;;;24.55;15.43;;;5.20;99.90;;;;;;2020149;70;21086;-81
2021/12/26 08:31:56;;;;;;;20.68;15.75;;;5.20;99.90;;;;;;2023410;70;21109;-80
2021/12/26 08:34:22;;;;;;;21.65;15.63;;;5.30;99.90;;;;;;2023974;70;21095;-82
2021/12/26 08:36:49;;;;;;;22.60;16.25;;;5.30;99.90;;;;;;2021913;70;21031;-81
2021/12/26 08:39:15;;;;;;;19.23;15.15;;;5.40;99.90;;;;;;2022880;71;21090;-81
2021/12/26 08:41:41;;;;;;;22.87;15.75;;;5.70;99.90;;;;;;2023365;70;21545;-81
2021/12/26 08:44:07;;;;;;;24.00;15.83;;;5.80;99.90;;;;;;2021556;69;21069;-80
2021/12/26 08:46:33;;;;;;;21.12;15.50;;;5.80;99.90;;;;;;2019072;71;21020;-83
2021/12/26 08:48:59;;;;;;;19.40;14.93;;;5.70;99.90;;;;;;2021419;70;21056;-80
2021/12/26 08:51:25;;;;;;;18.57;13.75;;;5.60;99.90;;;;;;2018577;71;21171;-77
2021/12/26 08:53:52;;;;;;;19.50;14.28;;;5.70;99.90;;;;;;2018408;69;21091;-76
2021/12/26 08:56:18;;;;;;;21.42;14.43;;;5.90;99.90;;;;;;2018522;71;21024;-77
2021/12/26 08:58:44;;;;;;;19.67;14.35;;;6.10;99.90;;;;;;2018494;71;21026;-77
2021/12/26 09:01:10;;;;;;;17.92;14.00;;;5.90;99.90;;;;;;2019572;70;21132;-76
2021/12/26 09:03:37;;;;;;;19.82;13.35;;;5.90;99.90;;;;;;2020139;70;21105;-76
2021/12/26 09:06:04;;;;;;;19.23;12.68;;;6.00;99.90;;;;;;2023806;70;21113;-75
2021/12/26 09:08:30;;;;;;;14.50;11.97;;;6.00;99.90;;;;;;2018319;70;21017;-75
2021/12/26 09:10:56;;;;;;;17.25;11.80;;;6.10;99.90;;;;;;2019984;70;21108;-75
2021/12/26 09:13:22;;;;;;;19.10;12.00;;;6.10;99.90;;;;;;2022892;70;21087;-75
2021/12/26 09:15:48;;;;;;;17.23;12.20;;;6.00;99.90;;;;;;2020541;70;21100;-76
2021/12/26 09:18:14;;;;;;;15.23;12.18;;;6.00;99.90;;;;;;2024646;70;21019;-75
2021/12/26 09:20:41;;;;;;;16.85;12.37;;;6.10;99.90;;;;;;2019376;71;21036;-75
2021/12/26 09:23:07;;;;;;;14.47;11.08;;;6.00;99.90;;;;;;2020848;69;21034;-75
2021/12/26 09:25:33;;;;;;;14.70;11.65;;;5.90;99.90;;;;;;2018593;70;21059;-75
2021/12/26 09:27:59;;;;;;;14.73;12.35;;;5.90;99.90;;;;;;2018378;70;21149;-75
2021/12/26 09:30:25;;;;;;;16.17;11.12;;;5.80;99.90;;;;;;2019034;70;21475;-76
2021/12/26 09:32:51;;;;;;;11.73;10.08;;;5.90;99.90;;;;;;2022122;70;21504;-75
2021/12/26 09:35:17;;;;;;;13.85;11.10;;;5.90;99.90;;;;;;2019751;71;21479;-75
2021/12/26 09:37:46;;;;;;;12.80;11.10;;;5.90;99.90;;;;;;2018451;70;21464;-74
2021/12/26 09:40:13;;;;;;;16.42;11.95;;;6.00;99.90;;;;;;2023599;70;21505;-75
2021/12/26 09:42:39;;;;;;;15.68;11.95;;;6.00;99.90;;;;;;2023480;70;21025;-75
2021/12/26 09:45:05;;;;;;;12.70;11.30;;;6.00;99.90;;;;;;2022726;71;21024;-74
2021/12/26 09:47:31;;;;;;;16.93;12.18;;;6.00;99.90;;;;;;2023812;70;21043;-75
2021/12/26 09:49:57;;;;;;;18.23;12.25;;;6.00;99.90;;;;;;2021213;70;21040;-74
2021/12/26 09:52:23;;;;;;;13.68;11.65;;;6.10;99.90;;;;;;2021086;70;21052;-75
2021/12/26 09:54:49;;;;;;;19.10;12.60;;;6.10;99.90;;;;;;2019747;70;21048;-75
2021/12/26 09:57:16;;;;;;;11.97;10.68;;;6.20;99.90;;;;;;2018431;70;21117;-75
2021/12/26 09:59:43;;;;;;;15.32;10.93;;;6.30;99.90;;;;;;2020673;70;21094;-75
2021/12/26 10:02:09;;;;;;;14.03;11.65;;;6.40;99.90;;;;;;2018323;70;21490;-75
2021/12/26 10:04:35;;;;;;;22.40;12.98;;;6.50;99.90;;;;;;2023521;70;21535;-75
2021/12/26 10:07:01;;;;;;;13.62;10.72;;;6.50;99.90;;;;;;2019913;70;21608;-77
2021/12/26 10:09:27;;;;;;;16.60;11.70;;;6.60;99.90;;;;;;2019062;69;21459;-75
2021/12/26 10:11:53;;;;;;;16.80;12.58;;;6.70;99.90;;;;;;2021047;70;21534;-76
2021/12/26 10:14:20;;;;;;;14.00;11.78;;;6.40;99.90;;;;;;2019840;70;21035;-75
2021/12/26 10:16:46;;;;;;;16.30;11.18;;;6.50;99.90;;;;;;2019096;71;21066;-80
2021/12/26 10:19:12;;;;;;;21.45;11.73;;;6.70;99.90;;;;;;2019980;70;21087;-78
2021/12/26 10:21:38;;;;;;;15.05;11.40;;;6.70;99.90;;;;;;2018530;71;21118;-77
2021/12/26 10:24:04;;;;;;;14.65;10.55;;;6.80;99.90;;;;;;2018665;70;21044;-77
2021/12/26 10:26:30;;;;;;;16.15;10.78;;;6.90;99.90;;;;;;2020150;69;21015;-79
2021/12/26 10:28:56;;;;;;;20.68;10.40;;;6.90;99.90;;;;;;2021348;70;21128;-82
2021/12/26 10:31:22;;;;;;;11.60;9.18;;;6.90;99.90;;;;;;2020417;70;21038;-79
2021/12/26 10:33:48;;;;;;;12.35;8.85;;;6.80;99.90;;;;;;2023355;70;21114;-77
2021/12/26 10:36:15;;;;;;;16.90;9.25;;;6.80;99.90;;;;;;2022305;70;21099;-78
2021/12/26 10:38:42;;;;;;;12.28;8.23;;;6.90;99.90;;;;;;2023717;70;21075;-78
2021/12/26 10:41:08;;;;;;;18.02;10.70;;;6.90;99.90;;;;;;2018515;69;21040;-83
2021/12/26 10:43:34;;;;;;;9.58;7.92;;;7.00;99.90;;;;;;2018537;70;21036;-78
2021/12/26 10:46:01;;;;;;;10.15;8.05;;;7.10;99.90;;;;;;2018584;71;21039;-79
2021/12/26 10:48:27;;;;;;;11.78;8.30;;;7.10;99.90;;;;;;2020249;70;21024;-82
2021/12/26 10:50:54;;;;;;;10.25;8.28;;;7.40;99.90;;;;;;2020863;70;21106;-81
2021/12/26 10:53:23;;;;;;;11.85;6.95;;;7.60;99.90;;;;;;2022222;70;21548;-85
2021/12/26 10:55:51;;;;;;;8.23;7.08;;;7.80;99.90;;;;;;2022260;70;21052;-79
2021/12/26 10:58:17;;;;;;;10.28;6.25;;;8.10;99.90;;;;;;2018949;70;21073;-80
2021/12/26 11:00:44;;;;;;;8.45;6.12;;;8.40;99.90;;;;;;2023772;70;21115;-83
2021/12/26 11:03:10;;;;;;;6.75;5.25;;;8.60;99.90;;;;;;2020168;70;21044;-83
2021/12/26 11:05:38;;;;;;;8.08;5.60;;;8.40;99.90;;;;;;2019910;70;21122;-83
2021/12/26 11:08:04;;;;;;;7.00;4.67;;;8.20;99.90;;;;;;2018452;70;21436;-81
2021/12/26 11:10:30;;;;;;;8.33;5.53;;;8.10;99.90;;;;;;2021324;70;21045;-81
2021/12/26 11:12:56;;;;;;;11.10;5.45;;;7.60;99.90;;;;;;2018592;70;21125;-80
2021/12/26 11:15:22;;;;;;;7.40;5.17;;;7.40;99.90;;;;;;2020429;69;21104;-82
2021/12/26 11:17:50;;;;;;;7.42;5.10;;;7.30;99.90;;;;;;2019515;70;21052;-81
2021/12/26 11:20:16;;;;;;;7.08;5.37;;;7.40;99.90;;;;;;2019857;70;21120;-80
2021/12/26 11:22:42;;;;;;;7.58;5.62;;;7.50;99.90;;;;;;2018598;69;21153;-80
2021/12/26 11:25:08;;;;;;;8.30;5.78;;;7.60;99.90;;;;;;2019802;70;21013;-80
2021/12/26 11:27:34;;;;;;;6.95;5.40;;;7.50;99.90;;;;;;2018866;71;21137;-81
2021/12/26 11:30:00;;;;;;;7.12;5.15;;;7.50;99.90;;;;;;2018720;70;21202;-81
2021/12/26 11:32:26;;;;;;;6.03;4.80;;;7.60;99.90;;;;;;2023744;70;21112;-81
2021/12/26 11:34:53;;;;;;;8.30;4.92;;;7.80;99.90;;;;;;2021378;71;21503;-83
2021/12/26 11:37:19;;;;;;;6.58;5.17;;;7.90;99.90;;;;;;2021318;70;21048;-79
2021/12/26 11:39:45;;;;;;;6.00;4.95;;;7.90;99.90;;;;;;2017227;69;21052;-82
2021/12/26 11:42:11;;;;;;;5.20;4.70;;;7.90;99.90;;;;;;2022198;70;21036;-85
2021/12/26 11:44:37;;;;;;;6.20;4.80;;;8.00;99.90;;;;;;2017206;70;21011;-79
2021/12/26 11:47:05;;;;;;;8.30;5.85;;;8.00;99.90;;;;;;2020912;70;21023;-84
2021/12/26 11:49:33;;;;;;;7.00;5.42;;;8.10;99.90;;;;;;2018703;70;21463;-87
2021/12/26 11:51:59;;;;;;;4.85;4.30;;;8.10;99.90;;;;;;2018408;70;21132;-80
2021/12/26 11:54:25;;;;;;;6.45;4.67;;;8.50;99.90;;;;;;2019984;71;21039;-87
2021/12/26 11:56:52;;;;;;;10.13;4.92;;;8.60;99.90;;;;;;2018794;71;21087;-85
2021/12/26 11:59:18;;;;;;;6.28;4.15;;;8.70;99.90;;;;;;2020309;70;21044;-82
2021/12/26 12:01:44;;;;;;;6.75;4.72;;;8.70;99.90;;;;;;2023057;70;21016;-78
2021/12/26 12:04:10;;;;;;;6.45;4.95;;;8.50;99.90;;;;;;2020100;71;21063;-80
2021/12/26 12:06:36;;;;;;;6.55;4.67;;;8.50;99.90;;;;;;2021162;70;21046;-75
2021/12/26 12:09:02;;;;;;;5.90;4.78;;;8.60;99.90;;;;;;2019531;71;21087;-74
2021/12/26 12:11:28;;;;;;;6.42;4.72;;;8.60;99.90;;;;;;2020398;70;21044;-75
2021/12/26 12:13:55;;;;;;;8.90;5.42;;;8.70;99.90;;;;;;2024064;70;21144;-78
2021/12/26 12:16:21;;;;;;;4.90;4.47;;;9.40;99.90;;;;;;2018961;71;21040;-79
2021/12/26 12:18:47;;;;;;;5.22;4.08;;;9.80;99.90;;;;;;2020051;69;21077;-79
2021/12/26 12:21:13;;;;;;;7.97;4.65;;;9.50;99.90;;;;;;2023787;70;21055;-80
2021/12/26 12:23:40;;;;;;;4.50;4.03;;;9.20;99.90;;;;;;2018642;71;21048;-79
2021/12/26 12:26:06;;;;;;;7.62;4.40;;;9.00;99.90;;;;;;2018383;71;21063;-80
2021/12/26 12:28:32;;;;;;;7.12;4.33;;;8.70;99.90;;;;;;2019824;70;21030;-80
2021/12/26 12:30:58;;;;;;;6.37;4.22;;;8.90;99.90;;;;;;2020329;70;21541;-79
2021/12/26 12:33:29;;;;;;;5.05;3.77;;;9.10;99.90;;;;;;2019482;70;21491;-79
2021/12/26 12:35:52;;;;;;;6.62;3.50;;;9.10;99.90;;;;;;2016302;70;21092;-79
2021/12/26 12:38:18;;;;;;;4.12;3.70;;;9.10;99.90;;;;;;2023380;69;21051;-77
2021/12/26 12:40:44;;;;;;;3.72;3.30;;;9.20;99.90;;;;;;2019116;70;21109;-79